createdAt,value
2022-09-15T00:01:42.620Z,3.10
2022-09-15T00:04:10.967Z,3.10
2022-09-15T00:06:39.545Z,3.40
2022-09-15T00:09:08.092Z,3.60
2022-09-15T00:11:38.130Z,3.50
2022-09-15T00:14:08.859Z,3.80
2022-09-15T00:16:38.772Z,4.90
2022-09-15T00:19:07.454Z,3.70
2022-09-15T00:21:39.421Z,3.70
2022-09-15T00:24:09.661Z,4.10
2022-09-15T00:26:38.854Z,3.80
2022-09-15T00:31:35.514Z,3.30
2022-09-15T00:34:05.042Z,3.40
2022-09-15T00:36:34.131Z,3.70
2022-09-15T00:39:02.317Z,3.40
2022-09-15T00:41:31.309Z,3.40
2022-09-15T00:44:07.524Z,3.50
2022-09-15T00:46:41.559Z,3.60
2022-09-15T00:49:26.911Z,3.60
2022-09-15T00:52:04.815Z,3.70
2022-09-15T00:55:08.671Z,3.40
2022-09-15T00:57:44.678Z,3.80
2022-09-15T01:00:18.608Z,5.20
2022-09-15T01:02:48.572Z,3.60
2022-09-15T01:05:20.561Z,5.80
2022-09-15T01:08:05.849Z,3.80
2022-09-15T01:10:39.316Z,5.10
2022-09-15T01:13:12.717Z,3.20
2022-09-15T01:16:13.223Z,3.70
2022-09-15T01:18:56.819Z,3.80
2022-09-15T01:21:56.879Z,5.70
2022-09-15T01:24:42.315Z,3.20
2022-09-15T01:27:52.024Z,3.00
2022-09-15T01:30:24.949Z,4.00
2022-09-15T01:33:31.402Z,3.90
2022-09-15T01:36:12.801Z,3.90
2022-09-15T01:39:24.173Z,3.30
2022-09-15T01:42:01.248Z,4.80
2022-09-15T01:44:39.277Z,4.30
2022-09-15T01:47:12.758Z,4.10
2022-09-15T01:50:15.492Z,3.70
2022-09-15T01:52:49.459Z,3.60
2022-09-15T01:55:31.779Z,4.10
2022-09-15T01:58:00.228Z,3.90
2022-09-15T02:00:40.386Z,4.00
2022-09-15T02:03:38.070Z,4.30
2022-09-15T02:06:15.941Z,3.30
2022-09-15T02:09:02.792Z,4.40
2022-09-15T02:11:33.085Z,4.10
2022-09-15T02:14:21.232Z,6.10
2022-09-15T02:16:54.372Z,3.30
2022-09-15T02:19:33.758Z,4.90
2022-09-15T02:24:55.194Z,4.80
2022-09-15T02:27:28.613Z,3.60
2022-09-15T02:30:06.120Z,3.90
2022-09-15T02:32:37.121Z,3.80
2022-09-15T02:35:09.444Z,4.00
2022-09-15T02:37:39.221Z,4.70
2022-09-15T02:40:08.965Z,5.50
2022-09-15T02:42:37.389Z,4.70
2022-09-15T02:45:06.612Z,4.40
2022-09-15T02:47:35.071Z,7.30
2022-09-15T02:50:04.185Z,3.20
2022-09-15T02:52:32.767Z,4.40
2022-09-15T02:55:01.145Z,3.30
2022-09-15T02:57:29.913Z,3.50
2022-09-15T03:00:13.774Z,3.90
2022-09-15T03:02:45.818Z,3.60
2022-09-15T03:05:15.174Z,4.10
2022-09-15T03:07:43.824Z,3.20
2022-09-15T03:10:13.114Z,3.40
2022-09-15T03:12:45.169Z,3.30
2022-09-15T03:15:16.846Z,3.50
2022-09-15T03:17:47.197Z,4.00
2022-09-15T03:20:25.015Z,4.40
2022-09-15T03:22:53.533Z,3.50
2022-09-15T03:25:22.338Z,3.70
2022-09-15T03:27:50.698Z,2.60
2022-09-15T03:30:19.300Z,3.40
2022-09-15T03:32:48.989Z,3.60
2022-09-15T03:35:17.419Z,4.80
2022-09-15T03:37:46.027Z,3.20
2022-09-15T03:40:14.624Z,5.40
2022-09-15T03:42:43.085Z,3.30
2022-09-15T03:45:11.280Z,3.60
2022-09-15T03:47:39.691Z,3.70
2022-09-15T03:50:08.736Z,4.00
2022-09-15T03:52:37.250Z,4.90
2022-09-15T03:55:06.298Z,3.40
2022-09-15T03:57:34.534Z,4.50
2022-09-15T04:00:05.577Z,4.00
2022-09-15T04:02:34.200Z,4.40
2022-09-15T04:05:02.903Z,3.50
2022-09-15T04:07:31.323Z,3.60
2022-09-15T04:10:00.491Z,3.50
2022-09-15T04:12:32.336Z,3.60
2022-09-15T04:15:01.454Z,3.30
2022-09-15T04:17:30.248Z,4.10
2022-09-15T04:19:58.640Z,3.30
2022-09-15T04:22:27.877Z,3.90
2022-09-15T04:27:24.699Z,3.30
2022-09-15T04:29:53.596Z,4.00
2022-09-15T04:32:25.487Z,3.30
2022-09-15T04:34:53.833Z,7.90
2022-09-15T04:37:23.386Z,4.90
2022-09-15T04:39:51.874Z,3.40
2022-09-15T04:42:21.913Z,4.60
2022-09-15T04:44:50.301Z,5.90
2022-09-15T04:47:18.666Z,5.20
2022-09-15T04:49:47.094Z,5.40
2022-09-15T04:52:15.497Z,6.90
2022-09-15T04:54:44.017Z,7.20
2022-09-15T04:57:12.460Z,3.40
2022-09-15T04:59:40.838Z,5.40
2022-09-15T05:02:09.164Z,4.70
2022-09-15T05:04:37.622Z,6.00
2022-09-15T05:07:06.215Z,4.90
2022-09-15T05:09:34.777Z,5.10
2022-09-15T05:12:03.097Z,7.00
2022-09-15T05:14:31.992Z,4.80
2022-09-15T05:17:00.390Z,6.40
2022-09-15T05:19:28.950Z,4.40
2022-09-15T05:21:57.291Z,4.10
2022-09-15T05:24:25.695Z,3.80
2022-09-15T05:26:54.011Z,4.10
2022-09-15T05:29:22.558Z,4.30
2022-09-15T05:31:52.892Z,5.00
2022-09-15T05:34:23.567Z,3.60
2022-09-15T05:36:52.794Z,5.10
2022-09-15T05:39:21.336Z,5.10
2022-09-15T05:41:50.333Z,5.00
2022-09-15T05:44:18.964Z,4.70
2022-09-15T05:46:49.179Z,4.90
2022-09-15T05:49:17.574Z,5.50
2022-09-15T05:51:46.961Z,5.10
2022-09-15T05:54:19.507Z,5.50
2022-09-15T05:56:48.012Z,6.50
2022-09-15T05:59:16.413Z,5.60
2022-09-15T06:01:45.303Z,5.20
2022-09-15T06:04:16.645Z,6.20
2022-09-15T06:06:45.040Z,6.40
2022-09-15T06:09:14.338Z,6.80
2022-09-15T06:11:42.961Z,8.20
2022-09-15T06:14:13.817Z,8.90
2022-09-15T06:16:42.517Z,5.50
2022-09-15T06:19:10.921Z,6.80
2022-09-15T06:21:39.512Z,8.50
2022-09-15T06:26:40.822Z,15.00
2022-09-15T06:29:12.973Z,15.90
2022-09-15T06:31:41.931Z,13.20
2022-09-15T06:34:11.369Z,20.80
2022-09-15T06:36:39.781Z,13.80
2022-09-15T06:39:08.740Z,15.90
2022-09-15T06:42:06.015Z,10.90
2022-09-15T06:44:31.242Z,11.60
2022-09-15T06:46:59.973Z,12.10
2022-09-15T06:49:29.202Z,8.40
2022-09-15T06:54:28.538Z,10.90
2022-09-15T06:56:57.045Z,9.70
2022-09-15T06:59:25.420Z,6.40
2022-09-15T07:02:05.223Z,8.90
2022-09-15T07:04:37.236Z,14.10
2022-09-15T07:07:05.732Z,9.30
2022-09-15T07:09:34.162Z,13.60
2022-09-15T07:12:03.842Z,17.90
2022-09-15T07:14:32.313Z,8.00
2022-09-15T07:17:00.673Z,9.70
2022-09-15T07:19:29.100Z,10.50
2022-09-15T07:21:57.556Z,9.90
2022-09-15T07:26:54.787Z,13.70
2022-09-15T07:29:23.323Z,6.70
2022-09-15T07:31:52.463Z,8.20
2022-09-15T07:34:21.205Z,7.60
2022-09-15T07:36:49.614Z,10.00
2022-09-15T07:39:18.043Z,6.90
2022-09-15T07:41:46.714Z,7.10
2022-09-15T07:44:15.170Z,4.60
2022-09-15T07:46:43.538Z,7.10
2022-09-15T07:49:12.086Z,5.10
2022-09-15T07:51:40.458Z,7.20
2022-09-15T07:54:09.293Z,10.10
2022-09-15T07:56:38.025Z,8.10
2022-09-15T07:59:06.554Z,10.00
2022-09-15T08:01:35.174Z,10.60
2022-09-15T08:04:03.955Z,7.60
2022-09-15T08:06:35.341Z,8.20
2022-09-15T08:09:04.047Z,7.10
2022-09-15T08:11:32.809Z,6.10
2022-09-15T08:14:02.836Z,5.70
2022-09-15T08:16:31.621Z,9.00
2022-09-15T08:19:02.147Z,16.50
2022-09-15T08:21:30.499Z,20.90
2022-09-15T08:24:01.384Z,8.20
2022-09-15T08:26:30.129Z,5.30
2022-09-15T08:28:58.871Z,9.50
2022-09-15T08:31:27.287Z,5.90
2022-09-15T08:33:56.926Z,9.50
2022-09-15T08:36:28.391Z,7.40
2022-09-15T08:38:57.073Z,10.00
2022-09-15T08:41:38.102Z,11.10
2022-09-15T08:44:42.859Z,7.70
2022-09-15T08:47:38.482Z,6.60
2022-09-15T08:50:34.601Z,5.80
2022-09-15T08:53:13.507Z,7.00
2022-09-15T08:55:49.081Z,8.10
2022-09-15T08:58:24.557Z,7.30
2022-09-15T09:01:11.186Z,6.80
2022-09-15T09:04:10.763Z,5.80
2022-09-15T09:09:33.281Z,7.40
2022-09-15T09:12:29.526Z,6.30
2022-09-15T09:15:26.177Z,6.90
2022-09-15T09:18:47.329Z,9.50
2022-09-15T09:21:31.302Z,9.80
2022-09-15T09:24:28.865Z,32.20
2022-09-15T09:26:57.254Z,15.70
2022-09-15T09:29:35.964Z,9.50
2022-09-15T09:32:25.185Z,10.60
2022-09-15T09:35:33.801Z,6.30
2022-09-15T09:38:02.706Z,7.60
2022-09-15T09:40:32.986Z,7.80
2022-09-15T09:43:01.488Z,10.50
2022-09-15T09:45:29.847Z,7.70
2022-09-15T09:48:18.944Z,11.80
2022-09-15T09:53:53.768Z,7.90
2022-09-15T09:56:27.265Z,6.80
2022-09-15T09:58:55.791Z,7.20
2022-09-15T10:01:26.487Z,8.90
2022-09-15T10:04:20.290Z,6.40
2022-09-15T10:06:49.315Z,5.90
2022-09-15T10:09:19.594Z,8.80
2022-09-15T10:11:54.306Z,6.10
2022-09-15T10:14:28.356Z,6.80
2022-09-15T10:17:06.542Z,5.50
2022-09-15T10:19:56.188Z,6.80
2022-09-15T10:22:40.441Z,9.10
2022-09-15T10:25:20.632Z,8.80
2022-09-15T10:28:09.137Z,7.20
2022-09-15T10:30:39.161Z,13.40
2022-09-15T10:33:26.612Z,10.00
2022-09-15T10:35:59.958Z,7.60
2022-09-15T10:38:44.089Z,6.80
2022-09-15T10:41:23.322Z,9.60
2022-09-15T10:44:12.317Z,6.90
2022-09-15T10:47:12.197Z,4.80
2022-09-15T10:50:18.106Z,8.20
2022-09-15T10:53:25.918Z,6.70
2022-09-15T10:56:21.200Z,6.70
2022-09-15T10:59:43.617Z,7.30
2022-09-15T11:02:11.992Z,5.90
2022-09-15T11:05:11.137Z,8.00
2022-09-15T11:08:01.324Z,6.60
2022-09-15T11:10:57.161Z,4.50
2022-09-15T11:13:56.764Z,3.70
2022-09-15T11:16:52.948Z,3.60
2022-09-15T11:19:52.857Z,5.40
2022-09-15T11:22:29.338Z,4.30
2022-09-15T11:25:22.054Z,5.20
2022-09-15T11:28:20.126Z,6.10
2022-09-15T11:31:32.798Z,4.60
2022-09-15T11:34:36.000Z,4.70
2022-09-15T11:37:23.922Z,5.40
2022-09-15T11:40:02.384Z,5.00
2022-09-15T11:42:42.154Z,3.90
2022-09-15T11:45:20.785Z,4.60
2022-09-15T11:48:16.342Z,2.70
2022-09-15T11:50:49.325Z,2.20
2022-09-15T11:53:32.100Z,2.70
2022-09-15T11:56:19.585Z,1.80
2022-09-15T11:59:18.576Z,4.20
2022-09-15T12:02:29.486Z,2.40
2022-09-15T12:05:19.506Z,2.20
2022-09-15T12:08:02.771Z,2.90
2022-09-15T12:10:42.332Z,3.10
2022-09-15T12:13:18.477Z,3.10
2022-09-15T12:15:48.868Z,2.90
2022-09-15T12:18:49.128Z,3.50
2022-09-15T12:21:23.449Z,2.70
2022-09-15T12:24:13.717Z,2.90
2022-09-15T12:26:43.645Z,4.60
2022-09-15T12:29:42.146Z,4.10
2022-09-15T12:32:18.328Z,3.20
2022-09-15T12:35:02.632Z,3.40
2022-09-15T12:37:40.592Z,3.10
2022-09-15T12:40:33.282Z,3.10
2022-09-15T12:43:18.803Z,3.20
2022-09-15T12:45:58.407Z,3.50
2022-09-15T12:48:36.708Z,7.10
2022-09-15T12:51:12.059Z,4.30
2022-09-15T12:53:54.486Z,3.90
2022-09-15T12:56:31.961Z,2.40
2022-09-15T12:59:06.980Z,9.50
2022-09-15T13:01:49.663Z,3.70
2022-09-15T13:04:26.618Z,3.20
2022-09-15T13:07:16.266Z,4.60
2022-09-15T13:09:57.454Z,4.70
2022-09-15T13:12:36.726Z,4.50
2022-09-15T13:15:13.848Z,6.00
2022-09-15T13:17:47.408Z,4.60
2022-09-15T13:20:26.121Z,3.00
2022-09-15T13:22:56.692Z,2.80
2022-09-15T13:25:30.618Z,4.80
2022-09-15T13:28:02.079Z,4.80
2022-09-15T13:31:04.247Z,4.70
2022-09-15T13:40:56.867Z,4.60
2022-09-15T13:43:58.866Z,2.90
2022-09-15T13:46:51.489Z,4.70
2022-09-15T13:50:05.100Z,3.50
2022-09-15T13:53:04.917Z,5.20
2022-09-15T13:55:42.554Z,4.70
2022-09-15T14:01:08.743Z,5.00
2022-09-15T14:04:00.958Z,4.90
2022-09-15T14:06:43.026Z,5.20
2022-09-15T14:09:37.572Z,5.80
2022-09-15T14:12:12.359Z,4.50
2022-09-15T14:14:53.903Z,7.30
2022-09-15T14:17:26.201Z,3.60
2022-09-15T14:19:57.719Z,4.70
2022-09-15T14:22:35.587Z,4.50
2022-09-15T14:25:08.754Z,4.40
2022-09-15T14:27:44.523Z,4.40
2022-09-15T14:30:26.600Z,6.20
2022-09-15T14:33:00.829Z,4.30
2022-09-15T14:35:36.303Z,3.70
2022-09-15T14:38:05.177Z,4.40
2022-09-15T14:43:40.575Z,3.00
2022-09-15T14:46:14.340Z,4.00
2022-09-15T14:48:42.787Z,4.00
2022-09-15T14:51:33.101Z,4.20
2022-09-15T14:54:05.658Z,4.60
2022-09-15T14:56:42.346Z,2.70
2022-09-15T14:59:54.673Z,6.40
2022-09-15T15:02:47.103Z,4.50
2022-09-15T15:06:02.571Z,3.10
2022-09-15T15:08:42.636Z,4.20
2022-09-15T15:11:15.890Z,3.70
2022-09-15T15:13:50.249Z,3.30
2022-09-15T15:16:29.845Z,3.20
2022-09-15T15:18:58.492Z,3.50
2022-09-15T15:21:44.676Z,7.20
2022-09-15T15:24:13.499Z,2.80
2022-09-15T15:26:45.017Z,3.90
2022-09-15T15:29:58.466Z,3.30
2022-09-15T15:32:26.936Z,4.50
2022-09-15T15:35:02.511Z,3.70
2022-09-15T15:37:34.075Z,4.50
2022-09-15T15:40:07.287Z,6.00
2022-09-15T15:42:35.926Z,4.80
2022-09-15T15:45:10.093Z,5.30
2022-09-15T15:47:39.063Z,4.70
2022-09-15T15:52:45.129Z,4.80
2022-09-15T15:55:22.596Z,5.60
2022-09-15T15:57:54.605Z,5.80
2022-09-15T16:00:22.762Z,5.50
2022-09-15T16:02:52.332Z,4.20
2022-09-15T16:05:25.542Z,4.90
2022-09-15T16:07:56.178Z,3.90
2022-09-15T16:10:30.272Z,4.70
2022-09-15T16:12:58.705Z,3.90
2022-09-15T16:15:27.257Z,3.50
2022-09-15T16:17:55.520Z,3.00
2022-09-15T16:20:25.264Z,4.00
2022-09-15T16:22:53.752Z,2.80
2022-09-15T16:25:47.639Z,5.10
2022-09-15T16:28:17.846Z,2.50
2022-09-15T16:30:46.897Z,2.20
2022-09-15T16:33:18.073Z,2.60
2022-09-15T16:35:51.434Z,3.80
2022-09-15T16:38:21.564Z,3.70
2022-09-15T16:40:51.418Z,4.00
2022-09-15T16:43:22.022Z,4.40
2022-09-15T16:45:51.682Z,3.00
2022-09-15T16:48:20.422Z,2.70
2022-09-15T16:51:09.584Z,4.90
2022-09-15T16:53:39.614Z,3.10
2022-09-15T16:56:12.072Z,4.40
2022-09-15T16:58:42.253Z,3.10
2022-09-15T17:01:21.824Z,3.30
2022-09-15T17:03:50.292Z,3.20
2022-09-15T17:06:19.324Z,4.50
2022-09-15T17:08:47.818Z,4.00
2022-09-15T17:11:20.269Z,3.60
2022-09-15T17:13:48.858Z,4.10
2022-09-15T17:16:19.790Z,2.90
2022-09-15T17:18:49.219Z,6.70
2022-09-15T17:21:18.546Z,3.90
2022-09-15T17:23:49.588Z,2.90
2022-09-15T17:26:30.540Z,3.20
2022-09-15T17:28:59.726Z,5.20
2022-09-15T17:31:28.307Z,3.50
2022-09-15T17:33:56.761Z,3.70
2022-09-15T17:36:25.022Z,3.60
2022-09-15T17:38:53.491Z,3.00
2022-09-15T17:41:25.003Z,2.80
2022-09-15T17:43:55.111Z,3.90
2022-09-15T17:46:24.044Z,3.20
2022-09-15T17:48:52.673Z,3.90
2022-09-15T17:51:21.356Z,3.90
2022-09-15T17:53:49.741Z,3.70
2022-09-15T17:56:18.221Z,4.50
2022-09-15T17:58:46.625Z,4.00
2022-09-15T18:01:16.018Z,3.90
2022-09-15T18:03:45.269Z,3.20
2022-09-15T18:06:14.327Z,3.50
2022-09-15T18:08:42.922Z,2.00
2022-09-15T18:11:14.774Z,3.60
2022-09-15T18:13:43.376Z,3.20
2022-09-15T18:16:14.604Z,4.70
2022-09-15T18:18:43.235Z,3.90
2022-09-15T18:21:28.742Z,3.40
2022-09-15T18:23:57.535Z,3.50
2022-09-15T18:26:26.759Z,3.20
2022-09-15T18:28:56.075Z,4.30
2022-09-15T18:33:53.699Z,4.70
2022-09-15T18:36:22.272Z,4.30
2022-09-15T18:38:50.542Z,7.00
2022-09-15T18:41:18.957Z,2.90
2022-09-15T18:43:50.768Z,3.20
2022-09-15T18:46:20.440Z,3.40
2022-09-15T18:48:48.896Z,2.90
2022-09-15T18:51:24.225Z,3.40
2022-09-15T18:53:57.849Z,2.90
2022-09-15T18:56:26.423Z,3.60
2022-09-15T19:01:24.463Z,3.30
2022-09-15T19:03:53.036Z,2.80
2022-09-15T19:06:21.676Z,4.00
2022-09-15T19:08:50.310Z,2.80
2022-09-15T19:11:18.638Z,2.60
2022-09-15T19:13:47.222Z,4.20
2022-09-15T19:16:18.284Z,3.90
2022-09-15T19:18:52.152Z,2.80
2022-09-15T19:21:25.214Z,3.60
2022-09-15T19:23:59.075Z,4.30
2022-09-15T19:26:29.600Z,4.30
2022-09-15T19:28:58.562Z,4.10
2022-09-15T19:31:27.409Z,3.20
2022-09-15T19:33:55.833Z,2.60
2022-09-15T19:36:28.324Z,3.30
2022-09-15T19:39:00.710Z,3.00
2022-09-15T19:41:30.773Z,4.80
2022-09-15T19:44:02.565Z,2.40
2022-09-15T19:46:31.833Z,3.20
2022-09-15T19:49:02.451Z,3.30
2022-09-15T19:51:31.497Z,2.90
2022-09-15T19:54:00.907Z,3.50
2022-09-15T19:56:29.821Z,3.50
2022-09-15T19:58:59.502Z,3.70
2022-09-15T20:01:32.857Z,3.40
2022-09-15T20:04:02.118Z,2.40
2022-09-15T20:06:32.801Z,2.90
2022-09-15T20:09:01.509Z,4.50
2022-09-15T20:11:31.731Z,3.50
2022-09-15T20:14:00.990Z,4.80
2022-09-15T20:18:59.008Z,3.60
2022-09-15T20:24:19.521Z,3.40
2022-09-15T20:26:48.651Z,4.20
2022-09-15T20:34:14.998Z,4.00
2022-09-15T20:36:43.931Z,3.80
2022-09-15T20:39:15.365Z,3.30
2022-09-15T20:41:45.202Z,3.90
2022-09-15T20:44:15.345Z,4.00
2022-09-15T20:46:43.830Z,4.30
2022-09-15T20:49:12.782Z,3.60
2022-09-15T20:51:41.324Z,3.20
2022-09-15T20:54:11.125Z,3.30
2022-09-15T20:56:39.554Z,3.10
2022-09-15T20:59:10.574Z,4.80
2022-09-15T21:01:39.518Z,3.90
2022-09-15T21:06:38.653Z,2.40
2022-09-15T21:09:07.999Z,3.50
2022-09-15T21:11:37.247Z,2.50
2022-09-15T21:14:05.843Z,3.10
2022-09-15T21:16:35.108Z,4.40
2022-09-15T21:19:04.474Z,3.30
2022-09-15T21:24:06.508Z,4.00
2022-09-15T21:27:00.576Z,3.80
2022-09-15T21:29:29.744Z,3.30
2022-09-15T21:31:58.318Z,4.30
2022-09-15T21:34:27.173Z,3.70
2022-09-15T21:36:55.638Z,3.10
2022-09-15T21:39:24.122Z,4.30
2022-09-15T21:41:52.814Z,3.70
2022-09-15T21:44:21.096Z,3.60
2022-09-15T21:46:49.583Z,6.20
2022-09-15T21:49:18.653Z,4.00
2022-09-15T21:51:47.625Z,4.40
2022-09-15T21:54:15.956Z,4.80
2022-09-15T21:56:45.431Z,3.70
2022-09-15T21:59:13.825Z,4.30
2022-09-15T22:01:42.117Z,4.70
2022-09-15T22:04:10.766Z,4.00
2022-09-15T22:06:41.484Z,3.80
2022-09-15T22:09:15.832Z,3.40
2022-09-15T22:11:44.717Z,6.40
2022-09-15T22:14:14.644Z,4.90
2022-09-15T22:16:43.633Z,4.50
2022-09-15T22:19:13.469Z,5.00
2022-09-15T22:21:42.363Z,4.80
2022-09-15T22:24:13.724Z,4.80
2022-09-15T22:26:43.561Z,4.10
2022-09-15T22:29:12.168Z,5.10
2022-09-15T22:31:42.398Z,5.50
2022-09-15T22:34:10.973Z,4.20
2022-09-15T22:36:39.394Z,4.60
2022-09-15T22:39:07.972Z,5.40
2022-09-15T22:41:39.285Z,3.70
2022-09-15T22:44:17.099Z,4.80
2022-09-15T22:46:45.589Z,4.10
2022-09-15T22:49:14.263Z,5.20
2022-09-15T22:51:43.060Z,5.80
2022-09-15T22:54:11.618Z,6.70
2022-09-15T22:56:40.065Z,4.30
2022-09-15T22:59:08.493Z,6.20
2022-09-15T23:01:36.971Z,4.50
2022-09-15T23:04:05.286Z,5.90
2022-09-15T23:06:34.769Z,5.60
2022-09-15T23:09:07.981Z,5.90
2022-09-15T23:11:40.010Z,5.80
2022-09-15T23:14:15.407Z,5.20
2022-09-15T23:16:44.509Z,4.20
2022-09-15T23:21:42.228Z,3.90
2022-09-15T23:24:12.673Z,4.40
2022-09-15T23:26:40.932Z,5.90
2022-09-15T23:29:10.333Z,5.40
2022-09-15T23:31:38.911Z,4.50
2022-09-15T23:34:07.303Z,5.30
2022-09-15T23:36:35.722Z,6.50
2022-09-15T23:39:04.358Z,5.10
2022-09-15T23:41:32.736Z,7.00
2022-09-15T23:44:01.321Z,3.90
2022-09-15T23:46:30.452Z,7.10
2022-09-15T23:48:58.894Z,5.10
2022-09-15T23:51:27.682Z,5.70
2022-09-15T23:53:56.256Z,5.60
2022-09-15T23:56:25.023Z,6.40
2022-09-15T23:58:53.432Z,6.10
